Time;durP1;ratioP1;P1;durP2;ratioP2;P2;SDS_P1;SDS_P2;PMS_P1;PMS_P2;Temp;Humidity;BMP_temperature;BMP_pressure;BME280_temperature;BME280_humidity;BME280_pressure;Samples;Min_cycle;Max_cycle;Signal;HPM_P1;HPM_P2
2022/11/06 00:00:34;;;;;;;;;;;;;11.30;97217.60;;;;108941;1268;41723;-56
2022/11/06 00:03:04;;;;;;;;;;;;;11.30;97219.00;;;;108945;1269;41949;-56
2022/11/06 00:08:28;;;;;;;;;;;;;11.20;97229.60;;;;108933;1269;42366;-56
2022/11/06 00:10:58;;;;;;;;;;;;;11.20;97227.20;;;;108968;1269;41768;-56
2022/11/06 00:13:28;;;;;;;;;;;;;11.20;97229.80;;;;108940;1269;41146;-56
2022/11/06 00:16:01;;;;;;;;;;;;;11.16;97234.00;;;;108954;1269;42390;-57
2022/11/06 00:18:30;;;;;;;;;;;;;11.10;97238.00;;;;108949;1267;41617;-57
2022/11/06 00:21:04;;;;;;;;;;;;;11.10;97240.40;;;;108956;1269;41154;-56
2022/11/06 00:23:34;;;;;;;;;;;;;11.00;97241.20;;;;108880;1268;42495;-55
2022/11/06 00:26:05;;;;;;;;;;;;;11.00;97244.00;;;;108743;1269;42396;-56
2022/11/06 00:28:34;;;;;;;;;;;;;11.00;97241.00;;;;108779;1268;41152;-56
2022/11/06 00:31:04;;;;;;;;;;;;;10.92;97246.20;;;;108991;1269;42570;-54
2022/11/06 00:33:34;;;;;;;;;;;;;10.90;97251.80;;;;108987;1269;41396;-55
2022/11/06 00:36:05;;;;;;;;;;;;;10.90;97247.40;;;;108911;1269;41693;-55
2022/11/06 00:38:34;;;;;;;;;;;;;10.90;97246.00;;;;108983;1269;41715;-56
2022/11/06 00:41:04;;;;;;;;;;;;;10.84;97242.60;;;;108864;1269;41913;-55
2022/11/06 00:43:34;;;;;;;;;;;;;10.80;97247.00;;;;108983;1269;41642;-55
2022/11/06 00:46:07;;;;;;;;;;;;;10.80;97256.40;;;;108938;1266;42494;-56
2022/11/06 00:48:37;;;;;;;;;;;;;10.80;97263.60;;;;109015;1266;41160;-56
2022/11/06 00:51:08;;;;;;;;;;;;;10.80;97266.20;;;;108918;1266;42536;-55
2022/11/06 00:53:37;;;;;;;;;;;;;10.80;97266.00;;;;108999;1269;41148;-56
2022/11/06 00:56:08;;;;;;;;;;;;;10.80;97271.80;;;;109019;1269;41142;-56
2022/11/06 00:58:37;;;;;;;;;;;;;10.80;97269.20;;;;108972;1266;41621;-56
2022/11/06 01:01:07;;;;;;;;;;;;;10.78;97267.80;;;;108853;1269;41141;-59
2022/11/06 01:03:38;;;;;;;;;;;;;10.70;97266.20;;;;108899;1269;41234;-56
2022/11/06 01:06:19;;;;;;;;;;;;;10.70;97267.40;;;;108839;1269;41597;-58
2022/11/06 01:08:49;;;;;;;;;;;;;10.70;97268.00;;;;108929;1265;41230;-57
2022/11/06 01:11:25;;;;;;;;;;;;;10.70;97270.60;;;;108788;1269;42636;-56
2022/11/06 01:13:57;;;;;;;;;;;;;10.64;97267.40;;;;108818;1266;41185;-56
2022/11/06 01:16:28;;;;;;;;;;;;;10.60;97269.80;;;;108807;1269;41872;-56
2022/11/06 01:18:57;;;;;;;;;;;;;10.60;97270.20;;;;108889;1269;41157;-56
2022/11/06 01:21:32;;;;;;;;;;;;;10.56;97269.60;;;;108868;1269;41225;-56
2022/11/06 01:24:01;;;;;;;;;;;;;10.50;97264.80;;;;108848;1269;41150;-56
2022/11/06 01:26:31;;;;;;;;;;;;;10.50;97269.00;;;;108931;1268;41687;-57
2022/11/06 01:29:06;;;;;;;;;;;;;10.50;97266.40;;;;108928;1269;41277;-57
2022/11/06 01:31:35;;;;;;;;;;;;;10.50;97266.20;;;;108937;1269;41617;-58
2022/11/06 01:34:06;;;;;;;;;;;;;10.40;97264.40;;;;108942;1266;41295;-57
2022/11/06 01:36:36;;;;;;;;;;;;;10.40;97262.60;;;;108863;1269;41597;-57
2022/11/06 01:39:05;;;;;;;;;;;;;10.40;97257.60;;;;108826;1269;41160;-57
2022/11/06 01:41:37;;;;;;;;;;;;;10.40;97264.00;;;;108861;1269;41160;-57
2022/11/06 01:44:25;;;;;;;;;;;;;10.40;97263.20;;;;108997;1269;41177;-57
2022/11/06 01:46:55;;;;;;;;;;;;;10.40;97266.00;;;;109019;1269;41142;-57
2022/11/06 01:49:25;;;;;;;;;;;;;10.32;97260.40;;;;108980;1269;41246;-57
2022/11/06 01:51:57;;;;;;;;;;;;;10.30;97265.60;;;;108936;1269;41155;-56
2022/11/06 01:54:27;;;;;;;;;;;;;10.30;97270.00;;;;108909;1269;41642;-57
2022/11/06 01:56:58;;;;;;;;;;;;;10.30;97270.60;;;;109016;1269;41233;-57
2022/11/06 01:59:28;;;;;;;;;;;;;10.30;97265.20;;;;108866;1266;41711;-57
2022/11/06 02:01:59;;;;;;;;;;;;;10.30;97269.20;;;;108791;1262;41150;-57
2022/11/06 02:04:32;;;;;;;;;;;;;10.30;97271.20;;;;108798;1265;41159;-57
2022/11/06 02:07:01;;;;;;;;;;;;;10.30;97273.80;;;;108900;1269;41683;-56
2022/11/06 02:09:32;;;;;;;;;;;;;10.30;97272.60;;;;108900;1269;41146;-56
2022/11/06 02:12:07;;;;;;;;;;;;;10.30;97274.60;;;;109006;1265;41935;-56
2022/11/06 02:14:39;;;;;;;;;;;;;10.30;97275.60;;;;109013;1265;42740;-56
2022/11/06 02:17:13;;;;;;;;;;;;;10.30;97272.40;;;;108914;1269;41509;-57
2022/11/06 02:20:06;;;;;;;;;;;;;10.30;97277.20;;;;108996;1269;41287;-57
2022/11/06 02:22:38;;;;;;;;;;;;;10.30;97276.80;;;;109010;1269;41285;-56
2022/11/06 02:25:08;;;;;;;;;;;;;10.30;97280.40;;;;108978;1269;41203;-57
2022/11/06 02:27:39;;;;;;;;;;;;;10.30;97279.60;;;;108847;1269;41156;-57
2022/11/06 02:30:13;;;;;;;;;;;;;10.30;97278.20;;;;108951;1269;41660;-57
2022/11/06 02:32:53;;;;;;;;;;;;;10.30;97282.80;;;;108969;1269;41179;-57
2022/11/06 02:35:26;;;;;;;;;;;;;10.30;97287.20;;;;108898;1269;41278;-56
2022/11/06 02:38:19;;;;;;;;;;;;;10.30;97291.60;;;;108979;1266;41378;-56
2022/11/06 02:40:55;;;;;;;;;;;;;10.20;97292.40;;;;108848;1269;41149;-56
2022/11/06 02:43:29;;;;;;;;;;;;;10.16;97288.00;;;;108876;1270;41173;-56
2022/11/06 02:46:12;;;;;;;;;;;;;10.10;97289.80;;;;108805;1269;41260;-56
2022/11/06 02:48:44;;;;;;;;;;;;;10.10;97293.60;;;;108924;1269;41150;-56
2022/11/06 02:51:15;;;;;;;;;;;;;10.10;97294.00;;;;109002;1258;41619;-56
2022/11/06 02:53:45;;;;;;;;;;;;;10.18;97299.40;;;;108837;1269;41477;-56
2022/11/06 02:56:16;;;;;;;;;;;;;10.16;97298.60;;;;108955;1269;41238;-56
2022/11/06 02:58:52;;;;;;;;;;;;;10.20;97301.40;;;;109030;1266;41152;-57
2022/11/06 03:01:49;;;;;;;;;;;;;10.20;97303.60;;;;108865;1271;42574;-56
2022/11/06 03:04:22;;;;;;;;;;;;;10.30;97303.20;;;;108950;1269;42547;-56
2022/11/06 03:07:03;;;;;;;;;;;;;10.40;97302.60;;;;108991;1269;42100;-56
2022/11/06 03:09:32;;;;;;;;;;;;;10.50;97306.80;;;;108957;1269;41237;-57
2022/11/06 03:12:09;;;;;;;;;;;;;10.60;97305.00;;;;108781;1270;41144;-57
2022/11/06 03:14:43;;;;;;;;;;;;;10.60;97311.00;;;;108812;1269;41150;-57
2022/11/06 03:17:18;;;;;;;;;;;;;10.60;97310.40;;;;108971;1269;41218;-56
2022/11/06 03:19:53;;;;;;;;;;;;;10.60;97310.60;;;;108932;1269;42204;-57
2022/11/06 03:22:30;;;;;;;;;;;;;10.60;97311.00;;;;108980;1269;41395;-56
2022/11/06 03:25:18;;;;;;;;;;;;;10.60;97309.80;;;;108931;1269;41633;-56
2022/11/06 03:28:05;;;;;;;;;;;;;10.66;97311.20;;;;108962;1265;41137;-56
2022/11/06 03:30:39;;;;;;;;;;;;;10.70;97311.40;;;;108826;1269;42188;-56
2022/11/06 03:33:12;;;;;;;;;;;;;10.70;97317.20;;;;109027;1269;41152;-56
2022/11/06 03:35:42;;;;;;;;;;;;;10.70;97317.00;;;;109006;1269;41150;-56
2022/11/06 03:38:24;;;;;;;;;;;;;10.70;97317.40;;;;109027;1269;41137;-56
2022/11/06 03:40:57;;;;;;;;;;;;;10.66;97319.00;;;;108984;1269;42516;-56
2022/11/06 03:43:29;;;;;;;;;;;;;10.62;97317.40;;;;108893;1266;41716;-56
2022/11/06 03:45:59;;;;;;;;;;;;;10.62;97320.20;;;;109003;1268;41946;-57
2022/11/06 03:49:01;;;;;;;;;;;;;10.68;97321.40;;;;109012;1266;42198;-56
2022/11/06 03:51:41;;;;;;;;;;;;;10.70;97315.40;;;;108726;1269;41176;-56
2022/11/06 03:54:12;;;;;;;;;;;;;10.70;97316.40;;;;109023;1269;41230;-57
2022/11/06 03:56:46;;;;;;;;;;;;;10.70;97318.00;;;;108991;1265;41333;-56
2022/11/06 03:59:21;;;;;;;;;;;;;10.70;97319.40;;;;108909;1269;41149;-57
2022/11/06 04:01:52;;;;;;;;;;;;;10.70;97319.60;;;;108956;1269;41140;-57
2022/11/06 04:04:26;;;;;;;;;;;;;10.60;97318.60;;;;108961;1269;41950;-57
2022/11/06 04:07:01;;;;;;;;;;;;;10.60;97316.20;;;;108803;1269;41154;-57
2022/11/06 04:15:14;;;;;;;;;;;;;10.40;97322.00;;;;108625;1271;41154;-57
2022/11/06 04:17:44;;;;;;;;;;;;;10.40;97327.40;;;;108736;1269;41599;-56
2022/11/06 04:21:20;;;;;;;;;;;;;10.40;97322.20;;;;108708;1270;41169;-56
2022/11/06 04:23:23;;;;;;;;;;;;;10.40;97322.60;;;;108776;1270;41160;-56
2022/11/06 04:28:57;;;;;;;;;;;;;10.36;97321.00;;;;108969;1269;42048;-57
2022/11/06 04:31:26;;;;;;;;;;;;;10.38;97320.80;;;;108995;1269;41183;-57
2022/11/06 04:34:15;;;;;;;;;;;;;10.30;97324.60;;;;108744;1268;41157;-57
2022/11/06 04:36:49;;;;;;;;;;;;;10.30;97323.00;;;;108841;1269;41605;-57
2022/11/06 04:39:26;;;;;;;;;;;;;10.30;97324.60;;;;108973;1269;41233;-57
2022/11/06 04:41:57;;;;;;;;;;;;;10.30;97325.40;;;;108991;1269;41287;-57
2022/11/06 04:44:34;;;;;;;;;;;;;10.30;97325.00;;;;108955;1267;41246;-56
2022/11/06 04:47:04;;;;;;;;;;;;;10.26;97325.20;;;;109014;1269;41373;-56
2022/11/06 04:49:33;;;;;;;;;;;;;10.22;97328.80;;;;108982;1266;41221;-57
2022/11/06 04:52:03;;;;;;;;;;;;;10.20;97331.80;;;;108979;1269;42133;-56
2022/11/06 04:54:31;;;;;;;;;;;;;10.20;97333.60;;;;108968;1269;41180;-57
2022/11/06 04:57:01;;;;;;;;;;;;;10.16;97335.40;;;;108898;1269;41384;-56
2022/11/06 04:59:31;;;;;;;;;;;;;10.10;97330.80;;;;108875;1269;41166;-57
2022/11/06 05:02:01;;;;;;;;;;;;;10.10;97328.20;;;;108983;1265;41162;-56
2022/11/06 05:04:30;;;;;;;;;;;;;10.10;97333.80;;;;109043;1265;42405;-57
2022/11/06 05:07:00;;;;;;;;;;;;;10.10;97331.00;;;;108998;1266;41200;-56
2022/11/06 05:09:29;;;;;;;;;;;;;10.10;97334.20;;;;109041;1266;40735;-57
2022/11/06 05:11:59;;;;;;;;;;;;;10.10;97337.40;;;;108973;1265;41182;-56
2022/11/06 05:14:28;;;;;;;;;;;;;10.10;97341.80;;;;108978;1269;41275;-57
2022/11/06 05:16:58;;;;;;;;;;;;;10.10;97340.60;;;;108993;1269;41182;-57
2022/11/06 05:19:26;;;;;;;;;;;;;10.10;97347.40;;;;108948;1269;41237;-57
2022/11/06 05:24:57;;;;;;;;;;;;;10.10;97357.00;;;;108663;1269;41618;-56
2022/11/06 05:27:25;;;;;;;;;;;;;10.10;97363.80;;;;108687;1269;41495;-56
2022/11/06 05:29:54;;;;;;;;;;;;;10.10;97363.20;;;;108716;1270;41159;-56
2022/11/06 05:32:23;;;;;;;;;;;;;10.10;97365.60;;;;108711;1268;41236;-56
2022/11/06 05:34:51;;;;;;;;;;;;;10.10;97369.40;;;;108675;1266;41298;-56
2022/11/06 05:37:20;;;;;;;;;;;;;10.10;97369.40;;;;108705;1269;42092;-56
2022/11/06 05:39:49;;;;;;;;;;;;;10.10;97374.80;;;;108744;1269;41135;-56
2022/11/06 05:42:18;;;;;;;;;;;;;10.10;97370.80;;;;108816;1269;41166;-56
2022/11/06 05:44:46;;;;;;;;;;;;;10.10;97374.80;;;;108963;1269;41165;-56
2022/11/06 05:47:15;;;;;;;;;;;;;10.12;97374.40;;;;108937;1269;41163;-56
2022/11/06 05:49:44;;;;;;;;;;;;;10.18;97374.00;;;;108952;1269;41160;-56
2022/11/06 05:52:12;;;;;;;;;;;;;10.20;97381.20;;;;108811;1269;41697;-55
2022/11/06 05:54:41;;;;;;;;;;;;;10.20;97387.60;;;;108922;1268;41710;-57
2022/11/06 05:57:09;;;;;;;;;;;;;10.28;97391.40;;;;108915;1266;41174;-57
2022/11/06 05:59:38;;;;;;;;;;;;;10.30;97391.40;;;;108855;1265;41295;-56
2022/11/06 06:02:07;;;;;;;;;;;;;10.38;97393.80;;;;108988;1259;41717;-57
2022/11/06 06:04:35;;;;;;;;;;;;;10.40;97392.20;;;;108982;1268;41774;-57
2022/11/06 06:07:04;;;;;;;;;;;;;10.40;97400.00;;;;108973;1269;41145;-56
2022/11/06 06:09:32;;;;;;;;;;;;;10.48;97400.00;;;;108975;1266;41694;-57
2022/11/06 06:12:01;;;;;;;;;;;;;10.50;97401.80;;;;108908;1269;41148;-57
2022/11/06 06:14:29;;;;;;;;;;;;;10.50;97403.40;;;;108966;1266;41588;-57
2022/11/06 06:16:58;;;;;;;;;;;;;10.60;97409.40;;;;108962;1260;42090;-56
2022/11/06 06:19:26;;;;;;;;;;;;;10.60;97416.20;;;;108935;1269;41269;-56
2022/11/06 06:21:55;;;;;;;;;;;;;10.70;97421.20;;;;108921;1269;42586;-56
2022/11/06 06:24:24;;;;;;;;;;;;;10.70;97434.20;;;;108905;1271;41144;-56
2022/11/06 06:26:52;;;;;;;;;;;;;10.76;97431.40;;;;108963;1269;41628;-56
2022/11/06 06:29:21;;;;;;;;;;;;;10.80;97436.60;;;;108996;1266;41163;-57
2022/11/06 06:31:49;;;;;;;;;;;;;10.88;97437.80;;;;108937;1266;42102;-56
2022/11/06 06:34:18;;;;;;;;;;;;;10.90;97439.40;;;;108994;1266;42252;-56
2022/11/06 06:36:50;;;;;;;;;;;;;11.00;97442.20;;;;108994;1266;42031;-57
2022/11/06 06:39:19;;;;;;;;;;;;;11.02;97438.00;;;;108977;1270;41154;-57
2022/11/06 06:41:48;;;;;;;;;;;;;11.10;97443.40;;;;108839;1270;41393;-56
2022/11/06 06:44:16;;;;;;;;;;;;;11.18;97442.20;;;;108968;1270;41142;-57
2022/11/06 06:46:45;;;;;;;;;;;;;11.20;97442.40;;;;108972;1259;41239;-57
2022/11/06 06:49:13;;;;;;;;;;;;;11.20;97436.00;;;;108866;1266;41704;-57
2022/11/06 06:51:42;;;;;;;;;;;;;11.30;97436.40;;;;108971;1270;41608;-56
2022/11/06 06:54:10;;;;;;;;;;;;;11.32;97437.40;;;;108937;1271;41491;-57
2022/11/06 06:56:39;;;;;;;;;;;;;11.40;97434.20;;;;108921;1266;41599;-59
2022/11/06 06:59:07;;;;;;;;;;;;;11.42;97439.40;;;;108942;1269;41896;-58
2022/11/06 07:01:36;;;;;;;;;;;;;11.50;97442.60;;;;108964;1270;42138;-57
2022/11/06 07:04:05;;;;;;;;;;;;;11.60;97449.20;;;;108919;1270;41598;-58
2022/11/06 07:06:33;;;;;;;;;;;;;11.70;97449.00;;;;108963;1270;42322;-57
2022/11/06 07:09:02;;;;;;;;;;;;;11.80;97442.00;;;;108840;1271;41231;-57
2022/11/06 07:11:30;;;;;;;;;;;;;11.90;97442.20;;;;108908;1267;41142;-56
2022/11/06 07:13:59;;;;;;;;;;;;;12.08;97440.00;;;;108647;1264;41224;-57
2022/11/06 07:16:28;;;;;;;;;;;;;12.20;97438.00;;;;108655;1271;41269;-57
2022/11/06 07:18:57;;;;;;;;;;;;;12.40;97439.40;;;;108967;1271;41234;-57
2022/11/06 07:21:25;;;;;;;;;;;;;12.60;97438.80;;;;108972;1270;41933;-57
2022/11/06 07:23:54;;;;;;;;;;;;;12.80;97438.60;;;;108982;1270;41235;-57
2022/11/06 07:26:22;;;;;;;;;;;;;13.00;97435.00;;;;108989;1266;41688;-56
2022/11/06 07:28:51;;;;;;;;;;;;;13.20;97434.20;;;;108736;1266;312534;-56
2022/11/06 07:31:19;;;;;;;;;;;;;13.30;97434.20;;;;108958;1271;41781;-56
2022/11/06 07:33:48;;;;;;;;;;;;;13.50;97437.40;;;;108975;1265;41176;-56
2022/11/06 07:36:16;;;;;;;;;;;;;13.60;97434.20;;;;108968;1271;41151;-56
2022/11/06 07:38:45;;;;;;;;;;;;;13.80;97430.60;;;;108953;1266;41126;-57
2022/11/06 07:41:13;;;;;;;;;;;;;13.90;97431.60;;;;109000;1270;41148;-57
2022/11/06 07:43:42;;;;;;;;;;;;;14.00;97433.60;;;;108962;1270;41506;-57
2022/11/06 07:46:12;;;;;;;;;;;;;14.16;97435.20;;;;109007;1270;41154;-57
2022/11/06 07:48:40;;;;;;;;;;;;;14.30;97432.60;;;;108972;1270;41687;-57
2022/11/06 07:51:09;;;;;;;;;;;;;14.54;97430.80;;;;108976;1269;41142;-57
2022/11/06 07:53:38;;;;;;;;;;;;;14.80;97436.80;;;;108959;1266;42565;-57
2022/11/06 07:56:07;;;;;;;;;;;;;15.16;97441.80;;;;109001;1269;42396;-56
2022/11/06 07:58:36;;;;;;;;;;;;;15.50;97435.80;;;;108762;1266;41240;-56
2022/11/06 08:01:04;;;;;;;;;;;;;15.82;97442.20;;;;108698;1271;41376;-56
2022/11/06 08:03:33;;;;;;;;;;;;;16.20;97441.00;;;;108698;1270;41140;-56
2022/11/06 08:06:02;;;;;;;;;;;;;16.50;97436.00;;;;108666;1271;41227;-56
2022/11/06 08:08:31;;;;;;;;;;;;;16.76;97433.40;;;;108702;1271;41237;-56
2022/11/06 08:11:07;;;;;;;;;;;;;17.10;97432.60;;;;108837;1271;41222;-56
2022/11/06 08:13:36;;;;;;;;;;;;;17.40;97427.60;;;;108966;1269;41173;-57
2022/11/06 08:16:08;;;;;;;;;;;;;17.76;97426.60;;;;108951;1270;41159;-56
2022/11/06 08:18:36;;;;;;;;;;;;;18.10;97428.00;;;;108972;1270;41482;-56
2022/11/06 08:21:05;;;;;;;;;;;;;18.40;97426.60;;;;108877;1271;41166;-56
2022/11/06 08:23:34;;;;;;;;;;;;;18.68;97429.20;;;;108977;1270;41704;-56
2022/11/06 08:26:03;;;;;;;;;;;;;18.82;97428.40;;;;109005;1265;41661;-56
2022/11/06 08:28:32;;;;;;;;;;;;;18.98;97425.00;;;;108986;1267;41253;-57
2022/11/06 08:31:07;;;;;;;;;;;;;19.20;97422.60;;;;108863;1269;41607;-56
2022/11/06 08:33:36;;;;;;;;;;;;;19.54;97427.20;;;;108924;1271;41163;-57
2022/11/06 08:36:05;;;;;;;;;;;;;19.80;97420.40;;;;108905;1271;41310;-58
2022/11/06 08:38:34;;;;;;;;;;;;;20.10;97428.40;;;;108944;1265;41162;-57
2022/11/06 08:41:03;;;;;;;;;;;;;20.40;97420.20;;;;108946;1271;41601;-57
2022/11/06 08:43:32;;;;;;;;;;;;;20.58;97421.40;;;;108909;1271;41154;-57
2022/11/06 08:46:00;;;;;;;;;;;;;20.92;97424.20;;;;108945;1266;41232;-57
2022/11/06 08:48:29;;;;;;;;;;;;;21.26;97427.20;;;;109011;1270;41140;-57
2022/11/06 08:50:57;;;;;;;;;;;;;21.48;97421.00;;;;108968;1271;42290;-58
2022/11/06 08:53:26;;;;;;;;;;;;;21.84;97420.40;;;;108959;1271;41790;-57
2022/11/06 08:55:55;;;;;;;;;;;;;22.00;97418.60;;;;108954;1271;42386;-58
2022/11/06 08:58:23;;;;;;;;;;;;;22.20;97417.40;;;;108905;1271;41152;-58
2022/11/06 09:00:52;;;;;;;;;;;;;22.50;97416.80;;;;108944;1270;41986;-57
2022/11/06 09:03:20;;;;;;;;;;;;;22.70;97419.00;;;;108956;1270;41600;-57
2022/11/06 09:05:49;;;;;;;;;;;;;22.78;97418.20;;;;108959;1270;41758;-57
2022/11/06 09:08:17;;;;;;;;;;;;;23.04;97410.80;;;;108961;1271;41152;-57
2022/11/06 09:10:46;;;;;;;;;;;;;23.58;97406.60;;;;108993;1265;41700;-57
2022/11/06 09:13:15;;;;;;;;;;;;;24.02;97407.80;;;;108885;1270;41227;-57
2022/11/06 09:15:44;;;;;;;;;;;;;24.22;97404.40;;;;108980;1271;41704;-58
2022/11/06 09:18:12;;;;;;;;;;;;;24.50;97408.60;;;;108946;1271;41648;-58
2022/11/06 09:20:41;;;;;;;;;;;;;24.50;97405.60;;;;108958;1270;41207;-57
2022/11/06 09:23:09;;;;;;;;;;;;;24.80;97405.60;;;;108941;1266;41714;-58
2022/11/06 09:25:38;;;;;;;;;;;;;24.86;97407.80;;;;108787;1271;41543;-57
2022/11/06 09:28:07;;;;;;;;;;;;;24.74;97411.00;;;;108907;1271;41276;-56
2022/11/06 09:30:35;;;;;;;;;;;;;24.70;97407.80;;;;108972;1270;41921;-57
2022/11/06 09:33:03;;;;;;;;;;;;;24.60;97411.40;;;;108975;1270;41494;-57
2022/11/06 09:35:36;;;;;;;;;;;;;24.40;97405.00;;;;108935;1266;41397;-57
2022/11/06 09:38:17;;;;;;;;;;;;;24.20;97409.20;;;;108991;1266;41154;-57
2022/11/06 09:40:46;;;;;;;;;;;;;24.34;97413.80;;;;108886;1263;41153;-58
2022/11/06 09:43:35;;;;;;;;;;;;;24.60;97407.20;;;;108859;1270;41449;-57
2022/11/06 09:46:25;;;;;;;;;;;;;25.34;97401.60;;;;108937;1269;41167;-58
2022/11/06 09:48:56;;;;;;;;;;;;;25.88;97398.40;;;;108940;1269;41146;-57
2022/11/06 09:51:51;;;;;;;;;;;;;26.48;97398.60;;;;108982;1271;41236;-57
2022/11/06 09:54:33;;;;;;;;;;;;;27.24;97396.60;;;;108846;1270;41149;-57
2022/11/06 09:57:10;;;;;;;;;;;;;27.56;97398.20;;;;108942;1259;41403;-57
2022/11/06 09:59:40;;;;;;;;;;;;;27.50;97396.40;;;;108760;1270;42041;-57
2022/11/06 10:02:27;;;;;;;;;;;;;27.78;97393.80;;;;108900;1271;41154;-57
2022/11/06 10:05:07;;;;;;;;;;;;;28.20;97395.00;;;;108797;1266;41928;-58
2022/11/06 10:07:37;;;;;;;;;;;;;28.38;97391.40;;;;108765;1271;42161;-58
2022/11/06 10:10:15;;;;;;;;;;;;;28.80;97388.40;;;;108925;1271;41563;-56
2022/11/06 10:12:52;;;;;;;;;;;;;28.88;97389.20;;;;108752;1271;41159;-56
2022/11/06 10:15:25;;;;;;;;;;;;;28.98;97391.80;;;;108793;1271;41328;-57
2022/11/06 10:17:57;;;;;;;;;;;;;29.20;97392.40;;;;108849;1271;41140;-57
2022/11/06 10:20:30;;;;;;;;;;;;;29.20;97391.80;;;;108852;1271;41237;-57
2022/11/06 10:23:14;;;;;;;;;;;;;29.16;97388.60;;;;108738;1270;42411;-57
2022/11/06 10:25:43;;;;;;;;;;;;;28.98;97387.80;;;;108579;1266;42102;-57
2022/11/06 10:28:11;;;;;;;;;;;;;29.38;97389.00;;;;108822;1271;41247;-57
2022/11/06 10:30:46;;;;;;;;;;;;;29.46;97378.80;;;;108941;1271;42266;-57
2022/11/06 10:33:21;;;;;;;;;;;;;29.50;97375.00;;;;109000;1270;41166;-57
2022/11/06 10:35:52;;;;;;;;;;;;;29.30;97381.00;;;;108924;1269;41158;-58
2022/11/06 10:38:21;;;;;;;;;;;;;29.30;97376.20;;;;108949;1271;41503;-57
2022/11/06 10:40:50;;;;;;;;;;;;;29.32;97377.80;;;;108940;1260;41650;-57
2022/11/06 10:43:45;;;;;;;;;;;;;29.00;97372.00;;;;108928;1271;41922;-57
2022/11/06 10:46:14;;;;;;;;;;;;;29.06;97365.00;;;;108775;1270;41153;-57
2022/11/06 10:48:44;;;;;;;;;;;;;29.28;97370.00;;;;108826;1271;41148;-57
2022/11/06 10:51:32;;;;;;;;;;;;;29.20;97367.40;;;;108793;1268;41933;-57
2022/11/06 10:54:10;;;;;;;;;;;;;29.48;97361.20;;;;108759;1271;41881;-58
2022/11/06 10:56:39;;;;;;;;;;;;;29.44;97365.20;;;;108772;1271;41793;-58
2022/11/06 10:59:08;;;;;;;;;;;;;29.48;97365.80;;;;108806;1270;41418;-58
2022/11/06 11:01:37;;;;;;;;;;;;;29.72;97356.60;;;;108772;1271;41157;-58
2022/11/06 11:04:06;;;;;;;;;;;;;30.10;97355.20;;;;108769;1271;41531;-58
2022/11/06 11:06:37;;;;;;;;;;;;;30.22;97354.20;;;;108819;1271;41147;-58
2022/11/06 11:09:25;;;;;;;;;;;;;29.92;97355.80;;;;108765;1260;41237;-58
2022/11/06 11:11:54;;;;;;;;;;;;;29.90;97356.20;;;;108767;1269;42219;-58
2022/11/06 11:14:26;;;;;;;;;;;;;30.20;97356.00;;;;108816;1271;41522;-58
2022/11/06 11:16:54;;;;;;;;;;;;;30.30;97359.00;;;;108770;1270;41427;-58
2022/11/06 11:19:34;;;;;;;;;;;;;30.60;97358.20;;;;108646;1271;41152;-58
2022/11/06 11:22:02;;;;;;;;;;;;;30.96;97360.40;;;;108802;1271;41349;-58
2022/11/06 11:24:31;;;;;;;;;;;;;31.40;97362.20;;;;108821;1271;41148;-58
2022/11/06 11:27:00;;;;;;;;;;;;;31.06;97358.40;;;;108805;1271;41716;-58
2022/11/06 11:29:43;;;;;;;;;;;;;30.82;97360.00;;;;108804;1270;41153;-58
2022/11/06 11:32:13;;;;;;;;;;;;;30.80;97352.60;;;;108790;1270;42011;-58
2022/11/06 11:34:45;;;;;;;;;;;;;30.80;97352.20;;;;108795;1271;41224;-58
2022/11/06 11:37:26;;;;;;;;;;;;;30.54;97358.60;;;;108787;1271;42114;-58
2022/11/06 11:39:55;;;;;;;;;;;;;29.90;97358.80;;;;108840;1269;41197;-57
2022/11/06 11:42:30;;;;;;;;;;;;;29.40;97362.80;;;;108919;1268;41156;-57
2022/11/06 11:45:18;;;;;;;;;;;;;29.20;97360.40;;;;109017;1268;41144;-57
2022/11/06 11:47:48;;;;;;;;;;;;;28.70;97358.00;;;;109057;1268;41146;-57
2022/11/06 11:50:30;;;;;;;;;;;;;28.20;97355.40;;;;109022;1268;41171;-57
2022/11/06 11:53:01;;;;;;;;;;;;;28.20;97359.20;;;;109078;1267;41154;-57
2022/11/06 11:55:37;;;;;;;;;;;;;27.96;97361.40;;;;108987;1268;41582;-57
2022/11/06 11:58:13;;;;;;;;;;;;;27.44;97362.20;;;;109056;1268;41156;-57
2022/11/06 12:00:48;;;;;;;;;;;;;26.76;97366.60;;;;108978;1268;41161;-57
2022/11/06 12:03:16;;;;;;;;;;;;;26.30;97363.60;;;;109025;1267;41596;-57
2022/11/06 12:05:45;;;;;;;;;;;;;26.10;97369.80;;;;109055;1267;41242;-57
2022/11/06 12:08:21;;;;;;;;;;;;;26.20;97368.40;;;;108986;1268;41531;-57
2022/11/06 12:10:49;;;;;;;;;;;;;26.26;97368.80;;;;109023;1268;41173;-57
2022/11/06 12:13:19;;;;;;;;;;;;;26.30;97368.80;;;;108992;1268;41224;-57
2022/11/06 12:15:53;;;;;;;;;;;;;26.60;97369.40;;;;109078;1268;41493;-57
2022/11/06 12:18:32;;;;;;;;;;;;;26.94;97365.60;;;;108996;1268;41640;-57
2022/11/06 12:21:13;;;;;;;;;;;;;27.10;97363.20;;;;109101;1267;41150;-57
2022/11/06 12:23:44;;;;;;;;;;;;;27.30;97364.20;;;;109050;1266;41203;-57
2022/11/06 12:26:13;;;;;;;;;;;;;27.50;97367.60;;;;109080;1268;41228;-56
2022/11/06 12:28:42;;;;;;;;;;;;;27.60;97360.00;;;;109008;1268;41210;-56
2022/11/06 12:31:13;;;;;;;;;;;;;27.72;97362.60;;;;109036;1268;41583;-56
2022/11/06 12:33:42;;;;;;;;;;;;;27.70;97360.80;;;;109020;1267;41191;-56
2022/11/06 12:36:35;;;;;;;;;;;;;27.66;97368.60;;;;108994;1268;41148;-56
2022/11/06 12:39:18;;;;;;;;;;;;;27.50;97372.40;;;;109026;1266;41906;-56
2022/11/06 12:41:48;;;;;;;;;;;;;27.40;97373.20;;;;109038;1268;41229;-56
2022/11/06 12:44:16;;;;;;;;;;;;;27.50;97377.40;;;;109046;1268;41175;-56
2022/11/06 12:47:18;;;;;;;;;;;;;27.60;97374.80;;;;109048;1260;41243;-56
2022/11/06 12:50:09;;;;;;;;;;;;;27.40;97373.00;;;;108678;1268;41172;-56
2022/11/06 12:52:48;;;;;;;;;;;;;27.28;97372.80;;;;109020;1268;42298;-56
2022/11/06 12:55:16;;;;;;;;;;;;;27.14;97374.60;;;;109023;1266;40780;-56
2022/11/06 12:57:47;;;;;;;;;;;;;26.80;97375.20;;;;109065;1268;41239;-56
2022/11/06 13:00:19;;;;;;;;;;;;;26.58;97378.20;;;;109010;1267;41445;-56
2022/11/06 13:02:54;;;;;;;;;;;;;26.12;97380.80;;;;109025;1268;41690;-57
2022/11/06 13:05:25;;;;;;;;;;;;;25.50;97381.40;;;;109031;1268;42173;-57
2022/11/06 13:08:13;;;;;;;;;;;;;25.30;97381.40;;;;109074;1268;41232;-55
2022/11/06 13:10:57;;;;;;;;;;;;;25.10;97381.20;;;;109001;1268;41230;-55
2022/11/06 13:13:31;;;;;;;;;;;;;25.10;97376.20;;;;109025;1265;41289;-56
2022/11/06 13:15:59;;;;;;;;;;;;;25.10;97382.40;;;;108997;1268;41342;-56
2022/11/06 13:18:34;;;;;;;;;;;;;24.90;97387.80;;;;109036;1268;41241;-56
2022/11/06 13:21:05;;;;;;;;;;;;;24.84;97384.40;;;;109030;1268;41231;-55
2022/11/06 13:23:36;;;;;;;;;;;;;24.80;97385.00;;;;109052;1268;41344;-56
2022/11/06 13:26:09;;;;;;;;;;;;;24.70;97389.20;;;;109053;1268;41890;-56
2022/11/06 13:28:48;;;;;;;;;;;;;24.50;97390.00;;;;109076;1268;41720;-56
2022/11/06 13:31:17;;;;;;;;;;;;;24.44;97386.00;;;;109097;1267;41234;-56
2022/11/06 13:33:47;;;;;;;;;;;;;24.40;97389.20;;;;109062;1268;41272;-56
2022/11/06 13:36:15;;;;;;;;;;;;;24.22;97389.00;;;;109062;1268;42403;-56
2022/11/06 13:38:54;;;;;;;;;;;;;24.08;97396.40;;;;109074;1268;41636;-56
2022/11/06 13:41:25;;;;;;;;;;;;;23.90;97396.00;;;;109097;1268;42247;-56
2022/11/06 13:43:53;;;;;;;;;;;;;23.80;97404.20;;;;109071;1268;41811;-56
2022/11/06 13:46:40;;;;;;;;;;;;;23.70;97404.60;;;;109079;1268;41381;-56
2022/11/06 13:49:09;;;;;;;;;;;;;23.60;97403.40;;;;109042;1268;41752;-56
2022/11/06 13:51:38;;;;;;;;;;;;;23.60;97404.40;;;;109042;1266;41188;-56
2022/11/06 13:54:09;;;;;;;;;;;;;23.50;97408.80;;;;109061;1267;41310;-56
2022/11/06 13:57:10;;;;;;;;;;;;;23.50;97405.20;;;;109073;1263;42180;-56
2022/11/06 13:59:53;;;;;;;;;;;;;23.48;97409.60;;;;108836;1268;41797;-56
2022/11/06 14:02:28;;;;;;;;;;;;;23.40;97408.80;;;;109075;1266;41780;-56
2022/11/06 14:05:01;;;;;;;;;;;;;23.30;97407.20;;;;109053;1269;41424;-56
2022/11/06 14:07:30;;;;;;;;;;;;;23.30;97413.80;;;;109053;1268;41885;-56
2022/11/06 14:09:58;;;;;;;;;;;;;23.20;97411.40;;;;109003;1268;41227;-57
2022/11/06 14:12:27;;;;;;;;;;;;;23.16;97409.80;;;;109062;1266;41142;-55